createdAt,value
2023-03-04T00:03:45.173Z,59.13
2023-03-04T00:08:47.554Z,58.63
2023-03-04T00:13:50.224Z,58.74
2023-03-04T00:18:52.588Z,59.01
2023-03-04T00:23:55.113Z,58.90
2023-03-04T00:28:57.507Z,58.76
2023-03-04T00:33:59.943Z,59.25
2023-03-04T00:39:02.333Z,59.49
2023-03-04T00:44:05.886Z,59.76
2023-03-04T00:49:08.234Z,59.77
2023-03-04T00:54:10.621Z,59.83
2023-03-04T00:59:13.136Z,60.09
2023-03-04T01:04:15.452Z,60.56
2023-03-04T01:09:17.855Z,60.52
2023-03-04T01:14:20.335Z,60.56
2023-03-04T01:19:22.796Z,60.43
2023-03-04T01:24:25.169Z,61.47
2023-03-04T01:29:29.988Z,61.21
2023-03-04T01:34:32.709Z,62.04
2023-03-04T01:39:35.367Z,61.75
2023-03-04T01:44:37.780Z,62.13
2023-03-04T01:49:40.572Z,62.49
2023-03-04T01:54:43.178Z,62.94
2023-03-04T01:59:46.105Z,62.63
2023-03-04T02:04:48.472Z,63.11
2023-03-04T02:09:50.871Z,63.29
2023-03-04T02:14:53.385Z,63.31
2023-03-04T02:20:07.803Z,64.73
2023-03-04T02:25:22.511Z,64.89
2023-03-04T02:30:28.231Z,65.68
2023-03-04T02:35:30.615Z,66.68
2023-03-04T02:40:35.559Z,66.97
2023-03-04T02:45:47.084Z,68.37
2023-03-04T02:50:54.459Z,68.49
2023-03-04T02:55:56.968Z,69.53
2023-03-04T03:01:00.379Z,69.61
2023-03-04T03:06:03.993Z,69.71
2023-03-04T03:11:08.858Z,70.76
2023-03-04T03:16:12.115Z,70.72
2023-03-04T03:21:14.608Z,71.28
2023-03-04T03:26:17.406Z,71.54
2023-03-04T03:31:20.431Z,71.36
2023-03-04T03:36:22.886Z,71.64
2023-03-04T03:41:25.368Z,72.06
2023-03-04T03:46:27.878Z,72.65
2023-03-04T03:51:30.280Z,72.78
2023-03-04T03:56:32.618Z,72.69
2023-03-04T04:01:35.003Z,72.90
2023-03-04T04:06:37.415Z,73.04
2023-03-04T04:11:39.789Z,73.07
2023-03-04T04:16:42.676Z,73.69
2023-03-04T04:21:45.524Z,74.02
2023-03-04T04:26:47.838Z,73.44
2023-03-04T04:31:50.486Z,73.89
2023-03-04T04:36:53.072Z,73.35
2023-03-04T04:41:55.398Z,73.16
2023-03-04T04:46:57.751Z,73.68
2023-03-04T04:52:00.123Z,73.58
2023-03-04T04:57:02.528Z,72.90
2023-03-04T05:02:04.919Z,72.73
2023-03-04T05:07:07.338Z,72.40
2023-03-04T05:12:09.702Z,72.24
2023-03-04T05:17:12.134Z,72.34
2023-03-04T05:22:14.476Z,72.02
2023-03-04T05:27:16.788Z,71.25
2023-03-04T05:32:19.300Z,70.80
2023-03-04T05:37:21.760Z,68.55
2023-03-04T05:42:24.175Z,63.80
2023-03-04T05:47:26.511Z,61.27
2023-03-04T05:52:28.969Z,59.50
2023-03-04T05:57:32.476Z,57.38
2023-03-04T06:02:35.100Z,55.32
2023-03-04T06:07:37.614Z,53.49
2023-03-04T06:12:40.328Z,51.40
2023-03-04T06:17:42.704Z,51.87
2023-03-04T06:22:45.123Z,51.79
2023-03-04T06:27:49.180Z,52.29
2023-03-04T06:32:52.737Z,52.17
2023-03-04T06:37:55.056Z,51.13
2023-03-04T06:42:57.432Z,49.85
2023-03-04T06:47:59.756Z,50.27
2023-03-04T06:53:02.203Z,50.48
2023-03-04T06:58:04.717Z,50.08
2023-03-04T07:03:07.117Z,49.28
2023-03-04T07:08:09.507Z,48.96
2023-03-04T07:13:11.935Z,49.07
2023-03-04T07:18:14.300Z,48.95
2023-03-04T07:23:16.633Z,49.35
2023-03-04T07:28:19.105Z,49.48
2023-03-04T07:33:21.444Z,49.34
2023-03-04T07:38:23.711Z,48.71
2023-03-04T07:43:26.604Z,48.54
2023-03-04T07:48:29.636Z,48.38
2023-03-04T07:53:33.026Z,47.98
2023-03-04T07:58:35.454Z,48.63
2023-03-04T08:03:37.871Z,47.56
2023-03-04T08:08:40.648Z,47.02
2023-03-04T08:13:43.472Z,46.25
2023-03-04T08:18:48.527Z,46.07
2023-03-04T08:23:52.313Z,46.29
2023-03-04T08:28:57.037Z,46.35
2023-03-04T08:33:59.540Z,46.96
2023-03-04T08:39:02.710Z,46.26
2023-03-04T08:44:05.609Z,46.10
2023-03-04T08:49:08.929Z,45.70
2023-03-04T08:54:11.549Z,41.83
2023-03-04T08:59:13.955Z,39.53
2023-03-04T09:04:16.323Z,36.86
2023-03-04T09:09:18.743Z,35.37
2023-03-04T09:14:21.179Z,35.29
2023-03-04T09:19:24.625Z,33.90
2023-03-04T09:24:27.364Z,34.70
2023-03-04T09:29:29.801Z,32.73
2023-03-04T09:34:32.198Z,31.92
2023-03-04T09:39:34.699Z,30.82
2023-03-04T09:44:40.693Z,31.03
2023-03-04T09:49:49.506Z,31.26
2023-03-04T09:55:05.215Z,33.56
2023-03-04T10:00:20.340Z,31.94
2023-03-04T10:05:26.554Z,30.70
2023-03-04T10:10:44.109Z,30.13
2023-03-04T10:15:51.460Z,30.16
2023-03-04T10:21:23.514Z,30.46
2023-03-04T10:26:31.648Z,30.87
2023-03-04T10:31:37.604Z,30.22
2023-03-04T10:36:57.242Z,30.37
2023-03-04T10:42:06.100Z,30.64
2023-03-04T10:47:12.020Z,30.65
2023-03-04T10:52:38.940Z,30.96
2023-03-04T10:57:43.945Z,31.57
2023-03-04T11:02:48.905Z,32.33
2023-03-04T11:07:57.602Z,32.07
2023-03-04T11:13:13.280Z,33.09
2023-03-04T11:18:17.303Z,32.00
2023-03-04T11:23:34.513Z,33.31
2023-03-04T11:28:53.706Z,35.81
2023-03-04T11:34:21.526Z,36.77
2023-03-04T11:39:50.068Z,38.51
2023-03-04T11:44:53.129Z,38.23
2023-03-04T11:50:24.489Z,37.72
2023-03-04T11:55:46.634Z,38.92
2023-03-04T12:01:02.503Z,39.58
2023-03-04T12:06:23.618Z,40.94
2023-03-04T12:11:50.363Z,41.62
2023-03-04T12:17:15.096Z,42.69
2023-03-04T12:22:29.804Z,42.61
2023-03-04T12:27:37.537Z,44.09
2023-03-04T12:32:52.032Z,44.33
2023-03-04T12:38:07.836Z,44.36
2023-03-04T12:43:36.572Z,45.11
2023-03-04T12:49:07.698Z,44.83
2023-03-04T12:54:32.954Z,45.35
2023-03-04T12:59:43.499Z,45.74
2023-03-04T13:05:24.408Z,46.26
2023-03-04T13:10:26.868Z,46.18
2023-03-04T13:15:30.883Z,46.72
2023-03-04T13:20:39.589Z,46.60
2023-03-04T13:25:51.125Z,46.38
2023-03-04T13:30:56.946Z,46.52
2023-03-04T13:36:06.493Z,47.58
2023-03-04T13:41:48.483Z,47.85
2023-03-04T13:46:50.899Z,48.07
2023-03-04T13:51:53.693Z,48.37
2023-03-04T13:57:01.937Z,48.34
2023-03-04T14:02:16.071Z,48.10
2023-03-04T14:07:32.062Z,49.09
2023-03-04T14:12:38.013Z,48.96
2023-03-04T14:17:44.917Z,49.79
2023-03-04T14:22:47.319Z,49.88
2023-03-04T14:27:50.240Z,50.43
2023-03-04T14:33:01.315Z,50.83
2023-03-04T14:38:21.764Z,51.56
2023-03-04T14:43:25.017Z,52.10
2023-03-04T14:48:34.247Z,52.51
2023-03-04T14:53:36.672Z,52.27
2023-03-04T14:58:52.347Z,52.87
2023-03-04T15:04:11.500Z,53.46
2023-03-04T15:09:25.841Z,53.52
2023-03-04T15:14:50.324Z,53.82
2023-03-04T15:19:59.738Z,54.26
2023-03-04T15:25:02.299Z,55.13
2023-03-04T15:30:07.825Z,56.56
2023-03-04T15:35:13.862Z,56.35
2023-03-04T15:40:33.632Z,56.91
2023-03-04T15:45:38.526Z,57.65
2023-03-04T15:51:04.565Z,58.02
2023-03-04T15:56:12.355Z,58.23
2023-03-04T16:01:17.256Z,58.40
2023-03-04T16:06:24.037Z,58.29
2023-03-04T16:11:28.746Z,58.38
2023-03-04T16:16:31.129Z,58.89
2023-03-04T16:21:34.255Z,59.44
2023-03-04T16:26:36.897Z,59.90
2023-03-04T16:31:39.235Z,60.42
2023-03-04T16:36:41.982Z,60.38
2023-03-04T16:41:44.369Z,60.89
2023-03-04T16:46:46.866Z,60.93
2023-03-04T16:51:51.086Z,60.75
2023-03-04T16:56:53.396Z,61.11
2023-03-04T17:01:55.858Z,61.03
2023-03-04T17:06:58.330Z,61.42
2023-03-04T17:12:00.904Z,61.72
2023-03-04T17:17:04.743Z,61.67
2023-03-04T17:22:07.292Z,62.44
2023-03-04T17:27:09.694Z,62.11
2023-03-04T17:32:12.118Z,62.28
2023-03-04T17:37:15.118Z,62.26
2023-03-04T17:42:18.335Z,62.33
2023-03-04T17:47:20.748Z,62.37
2023-03-04T17:52:23.226Z,62.49
2023-03-04T17:57:25.671Z,62.25
2023-03-04T18:02:28.203Z,62.33
2023-03-04T18:07:30.664Z,62.32
2023-03-04T18:12:33.137Z,61.88
2023-03-04T18:17:35.465Z,61.88
2023-03-04T18:22:37.775Z,61.96
2023-03-04T18:27:41.184Z,62.07
2023-03-04T18:32:52.122Z,62.21
2023-03-04T18:37:54.960Z,62.51
2023-03-04T18:43:00.264Z,62.43
2023-03-04T18:48:02.416Z,62.59
2023-03-04T18:53:04.704Z,62.58
2023-03-04T18:58:06.984Z,62.67
2023-03-04T19:03:12.868Z,62.44
2023-03-04T19:08:15.336Z,62.92
2023-03-04T19:13:18.781Z,62.50
2023-03-04T19:18:21.703Z,62.97
2023-03-04T19:23:24.945Z,62.79
2023-03-04T19:28:27.539Z,62.88
2023-03-04T19:33:30.014Z,62.71
2023-03-04T19:38:33.900Z,62.62
2023-03-04T19:43:37.277Z,62.70
2023-03-04T19:48:40.924Z,62.64
2023-03-04T19:53:43.441Z,62.34
2023-03-04T19:58:48.493Z,62.40
2023-03-04T20:03:50.890Z,62.27
2023-03-04T20:08:56.602Z,62.18
2023-03-04T20:14:00.659Z,62.55
2023-03-04T20:19:03.123Z,62.35
2023-03-04T20:24:06.506Z,62.19
2023-03-04T20:29:08.828Z,62.63
2023-03-04T20:34:11.671Z,62.55
2023-03-04T20:39:28.026Z,62.40
2023-03-04T20:44:31.833Z,62.66
2023-03-04T20:49:34.603Z,63.14
2023-03-04T20:54:38.928Z,63.67
2023-03-04T20:59:41.569Z,63.70
2023-03-04T21:04:44.293Z,63.71
2023-03-04T21:09:46.707Z,64.13
2023-03-04T21:14:49.705Z,63.98
2023-03-04T21:19:52.095Z,64.29
2023-03-04T21:24:54.662Z,64.73
2023-03-04T21:29:57.013Z,64.92
2023-03-04T21:34:59.476Z,65.00
2023-03-04T21:40:02.505Z,65.40
2023-03-04T21:45:07.331Z,65.23
2023-03-04T21:50:10.261Z,65.20
2023-03-04T21:55:12.953Z,65.64
2023-03-04T22:00:16.931Z,65.38
2023-03-04T22:12:37.153Z,65.58
2023-03-04T22:17:39.780Z,65.80
2023-03-04T22:22:42.166Z,65.83
2023-03-04T22:27:44.641Z,65.88
2023-03-04T22:32:48.583Z,66.28
2023-03-04T22:37:51.064Z,66.35
2023-03-04T22:42:53.476Z,66.31
2023-03-04T22:47:56.239Z,66.26
2023-03-04T22:52:58.791Z,66.90
2023-03-04T22:58:02.240Z,66.58
2023-03-04T23:03:06.675Z,67.05
2023-03-04T23:08:09.137Z,67.64
2023-03-04T23:13:11.494Z,68.01
2023-03-04T23:18:13.867Z,67.96
2023-03-04T23:23:16.200Z,68.29
2023-03-04T23:28:19.320Z,68.49
2023-03-04T23:33:21.925Z,68.94
2023-03-04T23:38:24.253Z,69.62
2023-03-04T23:43:27.487Z,70.09
2023-03-04T23:48:29.957Z,70.76
2023-03-04T23:53:33.498Z,70.84
2023-03-04T23:58:35.846Z,71.07
